sensor_id;sensor_type;location;lat;lon;timestamp;temperature;humidity
47805;DHT22;33568;45.286;9.900;2024-02-04T00:01:47;8.30;99.90
47805;DHT22;33568;45.286;9.900;2024-02-04T00:04:14;8.30;99.90
47805;DHT22;33568;45.286;9.900;2024-02-04T00:06:40;8.30;99.90
47805;DHT22;33568;45.286;9.900;2024-02-04T00:09:07;8.30;99.90
47805;DHT22;33568;45.286;9.900;2024-02-04T00:11:34;8.30;99.90
47805;DHT22;33568;45.286;9.900;2024-02-04T00:14:00;8.30;99.90
47805;DHT22;33568;45.286;9.900;2024-02-04T00:16:27;8.20;99.90
47805;DHT22;33568;45.286;9.900;2024-02-04T00:18:54;8.30;99.90
47805;DHT22;33568;45.286;9.900;2024-02-04T00:21:20;8.30;99.90
47805;DHT22;33568;45.286;9.900;2024-02-04T00:23:47;8.20;99.90
47805;DHT22;33568;45.286;9.900;2024-02-04T00:26:13;8.20;99.90
47805;DHT22;33568;45.286;9.900;2024-02-04T00:28:39;8.20;99.90
47805;DHT22;33568;45.286;9.900;2024-02-04T00:31:09;8.30;99.90
47805;DHT22;33568;45.286;9.900;2024-02-04T00:33:35;8.30;99.90
47805;DHT22;33568;45.286;9.900;2024-02-04T00:36:02;8.30;99.90
47805;DHT22;33568;45.286;9.900;2024-02-04T00:38:28;8.30;99.90
47805;DHT22;33568;45.286;9.900;2024-02-04T00:40:55;8.20;99.90
47805;DHT22;33568;45.286;9.900;2024-02-04T00:43:23;8.30;99.90
47805;DHT22;33568;45.286;9.900;2024-02-04T00:45:49;8.30;99.90
47805;DHT22;33568;45.286;9.900;2024-02-04T00:48:15;8.30;99.90
47805;DHT22;33568;45.286;9.900;2024-02-04T00:50:42;8.30;99.90
47805;DHT22;33568;45.286;9.900;2024-02-04T00:53:08;8.30;99.90
47805;DHT22;33568;45.286;9.900;2024-02-04T00:55:36;8.30;99.90
47805;DHT22;33568;45.286;9.900;2024-02-04T00:58:03;8.30;99.90
47805;DHT22;33568;45.286;9.900;2024-02-04T01:00:30;8.30;99.90
47805;DHT22;33568;45.286;9.900;2024-02-04T01:02:56;8.30;99.90
47805;DHT22;33568;45.286;9.900;2024-02-04T01:05:23;8.30;99.90
47805;DHT22;33568;45.286;9.900;2024-02-04T01:07:49;8.20;99.90
47805;DHT22;33568;45.286;9.900;2024-02-04T01:10:16;8.20;99.90
47805;DHT22;33568;45.286;9.900;2024-02-04T01:12:42;8.30;99.90
47805;DHT22;33568;45.286;9.900;2024-02-04T01:15:09;8.20;99.90
47805;DHT22;33568;45.286;9.900;2024-02-04T01:17:35;8.20;99.90
47805;DHT22;33568;45.286;9.900;2024-02-04T01:20:02;8.20;99.90
47805;DHT22;33568;45.286;9.900;2024-02-04T01:22:29;8.20;99.90
47805;DHT22;33568;45.286;9.900;2024-02-04T01:24:56;8.10;99.90
47805;DHT22;33568;45.286;9.900;2024-02-04T01:27:22;8.10;99.90
47805;DHT22;33568;45.286;9.900;2024-02-04T01:29:48;8.10;99.90
47805;DHT22;33568;45.286;9.900;2024-02-04T01:32:15;8.00;99.90
47805;DHT22;33568;45.286;9.900;2024-02-04T01:34:42;8.00;99.90
47805;DHT22;33568;45.286;9.900;2024-02-04T01:37:08;8.00;99.90
47805;DHT22;33568;45.286;9.900;2024-02-04T01:39:35;8.00;99.90
47805;DHT22;33568;45.286;9.900;2024-02-04T01:42:01;8.00;99.90
47805;DHT22;33568;45.286;9.900;2024-02-04T01:44:27;7.90;99.90
47805;DHT22;33568;45.286;9.900;2024-02-04T01:46:54;7.90;99.90
47805;DHT22;33568;45.286;9.900;2024-02-04T01:49:20;7.90;99.90
47805;DHT22;33568;45.286;9.900;2024-02-04T01:51:47;7.80;99.90
47805;DHT22;33568;45.286;9.900;2024-02-04T01:54:14;7.80;99.90
47805;DHT22;33568;45.286;9.900;2024-02-04T01:56:41;7.80;99.90
47805;DHT22;33568;45.286;9.900;2024-02-04T01:59:09;7.80;99.90
47805;DHT22;33568;45.286;9.900;2024-02-04T02:01:36;7.80;99.90
47805;DHT22;33568;45.286;9.900;2024-02-04T02:04:03;7.70;99.90
47805;DHT22;33568;45.286;9.900;2024-02-04T02:06:31;7.70;99.90
47805;DHT22;33568;45.286;9.900;2024-02-04T02:09:01;7.70;99.90
47805;DHT22;33568;45.286;9.900;2024-02-04T02:11:54;7.70;99.90
47805;DHT22;33568;45.286;9.900;2024-02-04T02:14:28;7.70;99.90
47805;DHT22;33568;45.286;9.900;2024-02-04T02:16:57;7.60;99.90
47805;DHT22;33568;45.286;9.900;2024-02-04T02:22:45;7.60;99.90
47805;DHT22;33568;45.286;9.900;2024-02-04T02:25:14;7.50;99.90
47805;DHT22;33568;45.286;9.900;2024-02-04T02:27:48;7.50;99.90
47805;DHT22;33568;45.286;9.900;2024-02-04T02:30:16;7.60;99.90
47805;DHT22;33568;45.286;9.900;2024-02-04T02:32:46;7.50;99.90
47805;DHT22;33568;45.286;9.900;2024-02-04T02:35:15;7.50;99.90
47805;DHT22;33568;45.286;9.900;2024-02-04T02:37:55;7.50;99.90
47805;DHT22;33568;45.286;9.900;2024-02-04T02:40:58;7.50;99.90
47805;DHT22;33568;45.286;9.900;2024-02-04T02:43:26;7.50;99.90
47805;DHT22;33568;45.286;9.900;2024-02-04T02:45:53;7.50;99.90
47805;DHT22;33568;45.286;9.900;2024-02-04T02:48:21;7.40;99.90
47805;DHT22;33568;45.286;9.900;2024-02-04T02:50:47;7.50;99.90
47805;DHT22;33568;45.286;9.900;2024-02-04T02:53:14;7.40;99.90
47805;DHT22;33568;45.286;9.900;2024-02-04T02:55:41;7.40;99.90
47805;DHT22;33568;45.286;9.900;2024-02-04T02:58:07;7.40;99.90
47805;DHT22;33568;45.286;9.900;2024-02-04T03:00:34;7.30;99.90
47805;DHT22;33568;45.286;9.900;2024-02-04T03:03:00;7.30;99.90
47805;DHT22;33568;45.286;9.900;2024-02-04T03:05:26;7.30;99.90
47805;DHT22;33568;45.286;9.900;2024-02-04T03:07:53;7.20;99.90
47805;DHT22;33568;45.286;9.900;2024-02-04T03:10:19;7.20;99.90
47805;DHT22;33568;45.286;9.900;2024-02-04T03:12:46;7.10;99.90
47805;DHT22;33568;45.286;9.900;2024-02-04T03:15:12;7.10;99.90
47805;DHT22;33568;45.286;9.900;2024-02-04T03:17:38;7.10;99.90
47805;DHT22;33568;45.286;9.900;2024-02-04T03:20:05;7.00;99.90
47805;DHT22;33568;45.286;9.900;2024-02-04T03:22:32;7.00;99.90
47805;DHT22;33568;45.286;9.900;2024-02-04T03:24:59;7.00;99.90
47805;DHT22;33568;45.286;9.900;2024-02-04T03:27:25;7.00;99.90
47805;DHT22;33568;45.286;9.900;2024-02-04T03:29:52;7.00;99.90
47805;DHT22;33568;45.286;9.900;2024-02-04T03:32:18;7.00;99.90
47805;DHT22;33568;45.286;9.900;2024-02-04T03:34:44;7.00;99.90
47805;DHT22;33568;45.286;9.900;2024-02-04T03:37:12;7.00;99.90
47805;DHT22;33568;45.286;9.900;2024-02-04T03:39:38;7.00;99.90
47805;DHT22;33568;45.286;9.900;2024-02-04T03:42:05;6.90;99.90
47805;DHT22;33568;45.286;9.900;2024-02-04T03:44:31;7.00;99.90
47805;DHT22;33568;45.286;9.900;2024-02-04T03:46:57;7.00;99.90
47805;DHT22;33568;45.286;9.900;2024-02-04T03:49:24;7.00;99.90
47805;DHT22;33568;45.286;9.900;2024-02-04T03:51:51;6.90;99.90
47805;DHT22;33568;45.286;9.900;2024-02-04T03:54:18;6.90;99.90
47805;DHT22;33568;45.286;9.900;2024-02-04T03:56:45;6.90;99.90
47805;DHT22;33568;45.286;9.900;2024-02-04T03:59:12;6.90;99.90
47805;DHT22;33568;45.286;9.900;2024-02-04T04:01:38;6.90;99.90
47805;DHT22;33568;45.286;9.900;2024-02-04T04:04:05;6.90;99.90
47805;DHT22;33568;45.286;9.900;2024-02-04T04:06:31;6.90;99.90
47805;DHT22;33568;45.286;9.900;2024-02-04T04:08:58;6.80;99.90
47805;DHT22;33568;45.286;9.900;2024-02-04T04:11:25;6.80;99.90
47805;DHT22;33568;45.286;9.900;2024-02-04T04:13:51;6.80;99.90
47805;DHT22;33568;45.286;9.900;2024-02-04T04:16:20;6.70;99.90
47805;DHT22;33568;45.286;9.900;2024-02-04T04:18:48;6.70;99.90
47805;DHT22;33568;45.286;9.900;2024-02-04T04:21:16;6.60;99.90
47805;DHT22;33568;45.286;9.900;2024-02-04T04:23:42;6.50;99.90
47805;DHT22;33568;45.286;9.900;2024-02-04T04:26:09;6.40;99.90
47805;DHT22;33568;45.286;9.900;2024-02-04T04:28:35;6.40;99.90
47805;DHT22;33568;45.286;9.900;2024-02-04T04:31:02;6.30;99.90
47805;DHT22;33568;45.286;9.900;2024-02-04T04:33:29;6.30;99.90
47805;DHT22;33568;45.286;9.900;2024-02-04T04:35:56;6.30;99.90
47805;DHT22;33568;45.286;9.900;2024-02-04T04:38:22;6.20;99.90
47805;DHT22;33568;45.286;9.900;2024-02-04T04:40:48;6.20;99.90
47805;DHT22;33568;45.286;9.900;2024-02-04T04:43:15;6.20;99.90
47805;DHT22;33568;45.286;9.900;2024-02-04T04:45:41;6.20;99.90
47805;DHT22;33568;45.286;9.900;2024-02-04T04:48:08;6.20;99.90
47805;DHT22;33568;45.286;9.900;2024-02-04T04:50:35;6.20;99.90
47805;DHT22;33568;45.286;9.900;2024-02-04T04:53:02;6.10;99.90
47805;DHT22;33568;45.286;9.900;2024-02-04T04:55:28;6.10;99.90
47805;DHT22;33568;45.286;9.900;2024-02-04T04:57:55;6.10;99.90
47805;DHT22;33568;45.286;9.900;2024-02-04T05:00:21;6.10;99.90
47805;DHT22;33568;45.286;9.900;2024-02-04T05:02:48;6.10;99.90
47805;DHT22;33568;45.286;9.900;2024-02-04T05:05:14;6.00;99.90
47805;DHT22;33568;45.286;9.900;2024-02-04T05:07:40;6.00;99.90
47805;DHT22;33568;45.286;9.900;2024-02-04T05:10:07;6.00;99.90
47805;DHT22;33568;45.286;9.900;2024-02-04T05:12:36;5.90;99.90
47805;DHT22;33568;45.286;9.900;2024-02-04T05:15:02;5.90;99.90
47805;DHT22;33568;45.286;9.900;2024-02-04T05:17:30;5.90;99.90
47805;DHT22;33568;45.286;9.900;2024-02-04T05:19:56;5.80;99.90
47805;DHT22;33568;45.286;9.900;2024-02-04T05:22:22;5.70;99.90
47805;DHT22;33568;45.286;9.900;2024-02-04T05:24:49;5.70;99.90
47805;DHT22;33568;45.286;9.900;2024-02-04T05:27:15;5.60;99.90
47805;DHT22;33568;45.286;9.900;2024-02-04T05:29:42;5.50;99.90
47805;DHT22;33568;45.286;9.900;2024-02-04T05:32:09;5.40;99.90
47805;DHT22;33568;45.286;9.900;2024-02-04T05:34:37;5.30;99.90
47805;DHT22;33568;45.286;9.900;2024-02-04T05:37:03;5.30;99.90
47805;DHT22;33568;45.286;9.900;2024-02-04T05:39:30;5.30;99.90
47805;DHT22;33568;45.286;9.900;2024-02-04T05:41:56;5.30;99.90
47805;DHT22;33568;45.286;9.900;2024-02-04T05:44:22;5.30;99.90
47805;DHT22;33568;45.286;9.900;2024-02-04T05:46:49;5.20;99.90
47805;DHT22;33568;45.286;9.900;2024-02-04T05:49:15;5.30;99.90
47805;DHT22;33568;45.286;9.900;2024-02-04T05:51:43;5.30;99.90
47805;DHT22;33568;45.286;9.900;2024-02-04T05:54:10;5.20;99.90
47805;DHT22;33568;45.286;9.900;2024-02-04T05:56:36;5.20;99.90
47805;DHT22;33568;45.286;9.900;2024-02-04T05:59:03;5.20;99.90
47805;DHT22;33568;45.286;9.900;2024-02-04T06:01:29;5.20;99.90
47805;DHT22;33568;45.286;9.900;2024-02-04T06:03:56;5.20;99.90
47805;DHT22;33568;45.286;9.900;2024-02-04T06:06:22;5.20;99.90
47805;DHT22;33568;45.286;9.900;2024-02-04T06:08:48;5.20;99.90
47805;DHT22;33568;45.286;9.900;2024-02-04T06:11:15;5.20;99.90
47805;DHT22;33568;45.286;9.900;2024-02-04T06:13:43;5.10;99.90
47805;DHT22;33568;45.286;9.900;2024-02-04T06:16:10;5.10;99.90
47805;DHT22;33568;45.286;9.900;2024-02-04T06:18:39;5.10;99.90
47805;DHT22;33568;45.286;9.900;2024-02-04T06:21:06;5.10;99.90
47805;DHT22;33568;45.286;9.900;2024-02-04T06:23:33;5.10;99.90
47805;DHT22;33568;45.286;9.900;2024-02-04T06:26:00;5.10;99.90
47805;DHT22;33568;45.286;9.900;2024-02-04T06:28:27;5.10;99.90
47805;DHT22;33568;45.286;9.900;2024-02-04T06:30:53;5.20;99.90
47805;DHT22;33568;45.286;9.900;2024-02-04T06:33:20;5.20;99.90
47805;DHT22;33568;45.286;9.900;2024-02-04T06:35:46;5.20;99.90
47805;DHT22;33568;45.286;9.900;2024-02-04T06:38:13;5.20;99.90
47805;DHT22;33568;45.286;9.900;2024-02-04T06:40:39;5.20;99.90
47805;DHT22;33568;45.286;9.900;2024-02-04T06:43:05;5.20;99.90
47805;DHT22;33568;45.286;9.900;2024-02-04T06:45:32;5.20;99.90
47805;DHT22;33568;45.286;9.900;2024-02-04T06:47:58;5.20;99.90
47805;DHT22;33568;45.286;9.900;2024-02-04T06:50:25;5.20;99.90
47805;DHT22;33568;45.286;9.900;2024-02-04T06:52:54;5.20;99.90
47805;DHT22;33568;45.286;9.900;2024-02-04T06:55:21;5.20;99.90
47805;DHT22;33568;45.286;9.900;2024-02-04T06:57:47;5.10;99.90
47805;DHT22;33568;45.286;9.900;2024-02-04T07:00:14;5.00;99.90
47805;DHT22;33568;45.286;9.900;2024-02-04T07:02:42;4.90;99.90
47805;DHT22;33568;45.286;9.900;2024-02-04T07:05:08;4.80;99.90
47805;DHT22;33568;45.286;9.900;2024-02-04T07:07:37;4.70;99.90
47805;DHT22;33568;45.286;9.900;2024-02-04T07:10:03;4.70;99.90
47805;DHT22;33568;45.286;9.900;2024-02-04T07:12:30;4.70;99.90
47805;DHT22;33568;45.286;9.900;2024-02-04T07:14:56;4.70;99.90
47805;DHT22;33568;45.286;9.900;2024-02-04T07:17:23;4.70;99.90
47805;DHT22;33568;45.286;9.900;2024-02-04T07:19:49;4.70;99.90
47805;DHT22;33568;45.286;9.900;2024-02-04T07:22:16;4.70;99.90
47805;DHT22;33568;45.286;9.900;2024-02-04T07:24:42;4.80;99.90
47805;DHT22;33568;45.286;9.900;2024-02-04T07:27:09;4.80;99.90
47805;DHT22;33568;45.286;9.900;2024-02-04T07:29:35;4.90;99.90
47805;DHT22;33568;45.286;9.900;2024-02-04T07:32:02;4.90;99.90
47805;DHT22;33568;45.286;9.900;2024-02-04T07:34:28;4.90;99.90
47805;DHT22;33568;45.286;9.900;2024-02-04T07:36:56;4.90;99.90
47805;DHT22;33568;45.286;9.900;2024-02-04T07:39:22;4.80;99.90
47805;DHT22;33568;45.286;9.900;2024-02-04T07:41:48;4.70;99.90
47805;DHT22;33568;45.286;9.900;2024-02-04T07:44:15;4.70;99.90
47805;DHT22;33568;45.286;9.900;2024-02-04T07:46:41;4.60;99.90
47805;DHT22;33568;45.286;9.900;2024-02-04T07:49:07;4.70;99.90
47805;DHT22;33568;45.286;9.900;2024-02-04T07:51:34;4.60;99.90
47805;DHT22;33568;45.286;9.900;2024-02-04T07:54:01;4.60;99.90
47805;DHT22;33568;45.286;9.900;2024-02-04T07:56:28;4.60;99.90
47805;DHT22;33568;45.286;9.900;2024-02-04T07:58:54;4.60;99.90
47805;DHT22;33568;45.286;9.900;2024-02-04T08:01:21;4.70;99.90
47805;DHT22;33568;45.286;9.900;2024-02-04T08:03:47;4.90;99.90
47805;DHT22;33568;45.286;9.900;2024-02-04T08:06:13;5.00;99.90
47805;DHT22;33568;45.286;9.900;2024-02-04T08:08:40;5.10;99.90
47805;DHT22;33568;45.286;9.900;2024-02-04T08:11:08;5.30;99.90
47805;DHT22;33568;45.286;9.900;2024-02-04T08:13:35;5.40;99.90
47805;DHT22;33568;45.286;9.900;2024-02-04T08:16:01;5.60;99.90
47805;DHT22;33568;45.286;9.900;2024-02-04T08:18:27;5.60;99.90
47805;DHT22;33568;45.286;9.900;2024-02-04T08:20:54;5.70;99.90
47805;DHT22;33568;45.286;9.900;2024-02-04T08:23:20;5.80;99.90
47805;DHT22;33568;45.286;9.900;2024-02-04T08:25:46;5.90;99.90
47805;DHT22;33568;45.286;9.900;2024-02-04T08:28:13;5.80;99.90
47805;DHT22;33568;45.286;9.900;2024-02-04T08:30:39;5.70;99.90
47805;DHT22;33568;45.286;9.900;2024-02-04T08:33:05;5.80;99.90
47805;DHT22;33568;45.286;9.900;2024-02-04T08:35:32;5.70;99.90
47805;DHT22;33568;45.286;9.900;2024-02-04T08:37:58;5.70;99.90
47805;DHT22;33568;45.286;9.900;2024-02-04T08:40:24;5.80;99.90
47805;DHT22;33568;45.286;9.900;2024-02-04T08:42:51;5.80;99.90
47805;DHT22;33568;45.286;9.900;2024-02-04T08:45:17;5.90;99.90
47805;DHT22;33568;45.286;9.900;2024-02-04T08:47:44;6.00;99.90
47805;DHT22;33568;45.286;9.900;2024-02-04T08:50:10;6.10;99.90
47805;DHT22;33568;45.286;9.900;2024-02-04T08:52:38;6.30;99.90
47805;DHT22;33568;45.286;9.900;2024-02-04T08:55:04;6.50;99.90
47805;DHT22;33568;45.286;9.900;2024-02-04T08:57:31;6.70;99.90
47805;DHT22;33568;45.286;9.900;2024-02-04T08:59:57;7.00;99.90
47805;DHT22;33568;45.286;9.900;2024-02-04T09:02:24;7.30;99.90
47805;DHT22;33568;45.286;9.900;2024-02-04T09:04:50;7.50;99.90
47805;DHT22;33568;45.286;9.900;2024-02-04T09:07:17;7.70;99.90
47805;DHT22;33568;45.286;9.900;2024-02-04T09:09:43;8.00;99.90
47805;DHT22;33568;45.286;9.900;2024-02-04T09:12:10;8.10;99.90
47805;DHT22;33568;45.286;9.900;2024-02-04T09:14:37;8.10;99.90
47805;DHT22;33568;45.286;9.900;2024-02-04T09:17:04;8.10;99.90
47805;DHT22;33568;45.286;9.900;2024-02-04T09:19:31;8.20;99.90
47805;DHT22;33568;45.286;9.900;2024-02-04T09:21:57;8.30;99.90
47805;DHT22;33568;45.286;9.900;2024-02-04T09:24:24;8.50;99.90
47805;DHT22;33568;45.286;9.900;2024-02-04T09:26:50;8.60;99.90
47805;DHT22;33568;45.286;9.900;2024-02-04T09:29:16;8.80;99.90
47805;DHT22;33568;45.286;9.900;2024-02-04T09:31:43;9.00;99.90
47805;DHT22;33568;45.286;9.900;2024-02-04T09:34:10;9.20;99.90
47805;DHT22;33568;45.286;9.900;2024-02-04T09:36:36;9.50;99.90
47805;DHT22;33568;45.286;9.900;2024-02-04T09:39:02;9.70;99.90
47805;DHT22;33568;45.286;9.900;2024-02-04T09:41:30;9.80;99.90
47805;DHT22;33568;45.286;9.900;2024-02-04T09:43:56;10.00;99.90
47805;DHT22;33568;45.286;9.900;2024-02-04T09:46:25;10.20;99.90
47805;DHT22;33568;45.286;9.900;2024-02-04T09:48:53;10.40;99.90
47805;DHT22;33568;45.286;9.900;2024-02-04T09:51:19;11.40;99.90
47805;DHT22;33568;45.286;9.900;2024-02-04T09:53:49;13.10;98.90
47805;DHT22;33568;45.286;9.900;2024-02-04T09:56:18;15.30;95.70
47805;DHT22;33568;45.286;9.900;2024-02-04T09:58:45;17.60;91.90
47805;DHT22;33568;45.286;9.900;2024-02-04T10:01:12;18.90;87.20
47805;DHT22;33568;45.286;9.900;2024-02-04T10:03:39;20.00;82.80
47805;DHT22;33568;45.286;9.900;2024-02-04T10:06:07;21.70;78.00
47805;DHT22;33568;45.286;9.900;2024-02-04T10:08:35;23.20;72.60
47805;DHT22;33568;45.286;9.900;2024-02-04T10:11:02;24.50;67.10
47805;DHT22;33568;45.286;9.900;2024-02-04T10:13:29;25.50;63.80
47805;DHT22;33568;45.286;9.900;2024-02-04T10:15:55;26.60;60.80
47805;DHT22;33568;45.286;9.900;2024-02-04T10:18:21;27.30;53.20
47805;DHT22;33568;45.286;9.900;2024-02-04T10:20:48;27.10;58.60
47805;DHT22;33568;45.286;9.900;2024-02-04T10:23:14;26.80;57.90
47805;DHT22;33568;45.286;9.900;2024-02-04T10:25:41;26.80;53.20
47805;DHT22;33568;45.286;9.900;2024-02-04T10:28:07;26.20;57.30
47805;DHT22;33568;45.286;9.900;2024-02-04T10:30:37;25.60;57.50
47805;DHT22;33568;45.286;9.900;2024-02-04T10:33:03;26.00;56.80
47805;DHT22;33568;45.286;9.900;2024-02-04T10:35:30;26.40;56.20
47805;DHT22;33568;45.286;9.900;2024-02-04T10:37:57;26.20;55.70
47805;DHT22;33568;45.286;9.900;2024-02-04T10:40:23;25.60;55.40
47805;DHT22;33568;45.286;9.900;2024-02-04T10:42:52;25.00;56.20
47805;DHT22;33568;45.286;9.900;2024-02-04T10:45:22;25.20;56.00
47805;DHT22;33568;45.286;9.900;2024-02-04T10:47:56;26.70;54.70
47805;DHT22;33568;45.286;9.900;2024-02-04T10:50:25;27.80;52.60
47805;DHT22;33568;45.286;9.900;2024-02-04T10:52:54;28.20;52.30
47805;DHT22;33568;45.286;9.900;2024-02-04T10:55:27;28.50;51.40
47805;DHT22;33568;45.286;9.900;2024-02-04T10:57:55;28.80;50.30
47805;DHT22;33568;45.286;9.900;2024-02-04T11:00:22;29.00;50.20
47805;DHT22;33568;45.286;9.900;2024-02-04T11:02:49;28.90;50.40
47805;DHT22;33568;45.286;9.900;2024-02-04T11:05:17;29.10;49.90
47805;DHT22;33568;45.286;9.900;2024-02-04T11:07:45;29.10;49.50
47805;DHT22;33568;45.286;9.900;2024-02-04T11:10:11;29.10;49.20
47805;DHT22;33568;45.286;9.900;2024-02-04T11:12:40;29.90;48.80
47805;DHT22;33568;45.286;9.900;2024-02-04T11:15:11;30.90;47.80
47805;DHT22;33568;45.286;9.900;2024-02-04T11:25:52;32.00;45.70
47805;DHT22;33568;45.286;9.900;2024-02-04T11:28:23;32.70;44.40
47805;DHT22;33568;45.286;9.900;2024-02-04T11:30:52;33.00;43.80
47805;DHT22;33568;45.286;9.900;2024-02-04T11:33:20;33.20;43.60
47805;DHT22;33568;45.286;9.900;2024-02-04T11:35:47;33.00;43.20
47805;DHT22;33568;45.286;9.900;2024-02-04T11:38:17;33.40;43.00
47805;DHT22;33568;45.286;9.900;2024-02-04T11:40:45;33.40;42.40
47805;DHT22;33568;45.286;9.900;2024-02-04T11:43:14;33.60;42.50
47805;DHT22;33568;45.286;9.900;2024-02-04T11:45:42;33.70;42.00
47805;DHT22;33568;45.286;9.900;2024-02-04T11:48:12;33.80;42.00
47805;DHT22;33568;45.286;9.900;2024-02-04T11:50:40;34.10;41.50
47805;DHT22;33568;45.286;9.900;2024-02-04T11:53:10;33.90;41.30
47805;DHT22;33568;45.286;9.900;2024-02-04T11:55:41;33.40;41.50
47805;DHT22;33568;45.286;9.900;2024-02-04T11:58:08;33.40;41.80
47805;DHT22;33568;45.286;9.900;2024-02-04T12:00:36;33.00;41.90
47805;DHT22;33568;45.286;9.900;2024-02-04T12:03:06;31.70;42.80
47805;DHT22;33568;45.286;9.900;2024-02-04T12:05:34;30.90;43.70
47805;DHT22;33568;45.286;9.900;2024-02-04T12:08:05;30.00;44.20
47805;DHT22;33568;45.286;9.900;2024-02-04T12:10:33;29.10;44.70
47805;DHT22;33568;45.286;9.900;2024-02-04T12:13:02;28.50;45.40
47805;DHT22;33568;45.286;9.900;2024-02-04T12:15:29;27.40;46.10
47805;DHT22;33568;45.286;9.900;2024-02-04T12:18:11;26.30;47.20
47805;DHT22;33568;45.286;9.900;2024-02-04T12:20:40;25.50;47.70
47805;DHT22;33568;45.286;9.900;2024-02-04T12:23:07;25.10;48.80
47805;DHT22;33568;45.286;9.900;2024-02-04T12:25:34;25.30;49.00
47805;DHT22;33568;45.286;9.900;2024-02-04T12:28:02;25.50;48.80
47805;DHT22;33568;45.286;9.900;2024-02-04T12:30:30;25.70;48.50
47805;DHT22;33568;45.286;9.900;2024-02-04T12:33:00;25.70;48.60
47805;DHT22;33568;45.286;9.900;2024-02-04T12:35:27;26.20;47.90
47805;DHT22;33568;45.286;9.900;2024-02-04T12:37:55;26.40;47.70
47805;DHT22;33568;45.286;9.900;2024-02-04T12:40:23;25.30;48.10
47805;DHT22;33568;45.286;9.900;2024-02-04T12:42:58;23.50;50.40
47805;DHT22;33568;45.286;9.900;2024-02-04T12:45:25;21.70;52.90
47805;DHT22;33568;45.286;9.900;2024-02-04T12:47:53;20.40;55.70
47805;DHT22;33568;45.286;9.900;2024-02-04T12:50:20;19.60;57.30
47805;DHT22;33568;45.286;9.900;2024-02-04T12:52:48;19.00;58.50
47805;DHT22;33568;45.286;9.900;2024-02-04T12:55:24;18.40;60.10
47805;DHT22;33568;45.286;9.900;2024-02-04T12:58:05;18.10;61.60
47805;DHT22;33568;45.286;9.900;2024-02-04T13:00:32;17.70;63.00
47805;DHT22;33568;45.286;9.900;2024-02-04T13:02:59;17.60;63.80
47805;DHT22;33568;45.286;9.900;2024-02-04T13:05:26;17.30;64.80
47805;DHT22;33568;45.286;9.900;2024-02-04T13:07:57;17.10;65.50
47805;DHT22;33568;45.286;9.900;2024-02-04T13:10:25;17.00;66.20
47805;DHT22;33568;45.286;9.900;2024-02-04T13:13:08;16.90;67.00
47805;DHT22;33568;45.286;9.900;2024-02-04T13:15:40;16.70;68.10
47805;DHT22;33568;45.286;9.900;2024-02-04T13:18:08;16.60;68.40
47805;DHT22;33568;45.286;9.900;2024-02-04T13:20:35;16.50;69.10
47805;DHT22;33568;45.286;9.900;2024-02-04T13:23:01;16.50;69.60
47805;DHT22;33568;45.286;9.900;2024-02-04T13:25:31;16.40;70.20
47805;DHT22;33568;45.286;9.900;2024-02-04T13:27:58;16.40;71.10
47805;DHT22;33568;45.286;9.900;2024-02-04T13:30:24;16.30;71.70
47805;DHT22;33568;45.286;9.900;2024-02-04T13:32:51;16.30;72.00
47805;DHT22;33568;45.286;9.900;2024-02-04T13:35:18;16.30;72.40
47805;DHT22;33568;45.286;9.900;2024-02-04T13:37:48;16.30;72.80
47805;DHT22;33568;45.286;9.900;2024-02-04T13:40:18;16.40;73.30
47805;DHT22;33568;45.286;9.900;2024-02-04T13:42:46;16.40;73.50
47805;DHT22;33568;45.286;9.900;2024-02-04T13:45:12;16.30;73.70
47805;DHT22;33568;45.286;9.900;2024-02-04T13:47:42;16.30;73.90
47805;DHT22;33568;45.286;9.900;2024-02-04T13:50:12;16.30;74.00
47805;DHT22;33568;45.286;9.900;2024-02-04T13:52:39;16.30;74.30
47805;DHT22;33568;45.286;9.900;2024-02-04T13:55:06;16.20;74.90
47805;DHT22;33568;45.286;9.900;2024-02-04T13:57:36;16.10;75.50
47805;DHT22;33568;45.286;9.900;2024-02-04T14:00:03;16.10;76.00
47805;DHT22;33568;45.286;9.900;2024-02-04T14:02:31;16.00;76.30
47805;DHT22;33568;45.286;9.900;2024-02-04T14:04:58;16.00;76.60
47805;DHT22;33568;45.286;9.900;2024-02-04T14:07:25;15.90;77.00
47805;DHT22;33568;45.286;9.900;2024-02-04T14:09:51;15.80;78.20
47805;DHT22;33568;45.286;9.900;2024-02-04T14:12:17;15.80;77.60
47805;DHT22;33568;45.286;9.900;2024-02-04T14:14:44;15.70;78.40
47805;DHT22;33568;45.286;9.900;2024-02-04T14:17:10;15.70;77.80
47805;DHT22;33568;45.286;9.900;2024-02-04T14:19:36;15.60;78.80
47805;DHT22;33568;45.286;9.900;2024-02-04T14:22:03;15.50;78.20
47805;DHT22;33568;45.286;9.900;2024-02-04T14:24:29;15.40;79.60
47805;DHT22;33568;45.286;9.900;2024-02-04T14:26:56;15.40;78.90
47805;DHT22;33568;45.286;9.900;2024-02-04T14:29:22;15.30;80.80
47805;DHT22;33568;45.286;9.900;2024-02-04T14:31:55;15.40;79.60
47805;DHT22;33568;45.286;9.900;2024-02-04T14:34:22;15.40;80.10
47805;DHT22;33568;45.286;9.900;2024-02-04T14:36:49;15.30;80.50
47805;DHT22;33568;45.286;9.900;2024-02-04T14:39:16;15.30;81.00
47805;DHT22;33568;45.286;9.900;2024-02-04T14:41:42;15.20;81.60
47805;DHT22;33568;45.286;9.900;2024-02-04T14:44:09;15.10;83.50
47805;DHT22;33568;45.286;9.900;2024-02-04T14:46:37;15.10;82.60
47805;DHT22;33568;45.286;9.900;2024-02-04T14:49:04;15.10;83.00
47805;DHT22;33568;45.286;9.900;2024-02-04T14:51:31;15.00;83.60
47805;DHT22;33568;45.286;9.900;2024-02-04T14:53:58;15.00;84.00
47805;DHT22;33568;45.286;9.900;2024-02-04T14:56:24;14.90;84.40
47805;DHT22;33568;45.286;9.900;2024-02-04T14:58:50;14.80;86.20
47805;DHT22;33568;45.286;9.900;2024-02-04T15:01:17;14.80;85.20
47805;DHT22;33568;45.286;9.900;2024-02-04T15:03:43;14.80;85.60
47805;DHT22;33568;45.286;9.900;2024-02-04T15:06:09;14.70;87.30
47805;DHT22;33568;45.286;9.900;2024-02-04T15:08:36;14.70;86.20
47805;DHT22;33568;45.286;9.900;2024-02-04T15:11:02;14.60;88.40
47805;DHT22;33568;45.286;9.900;2024-02-04T15:13:29;14.60;86.90
47805;DHT22;33568;45.286;9.900;2024-02-04T15:15:56;14.50;87.30
47805;DHT22;33568;45.286;9.900;2024-02-04T15:18:24;14.50;87.90
47805;DHT22;33568;45.286;9.900;2024-02-04T15:20:51;14.40;88.40
47805;DHT22;33568;45.286;9.900;2024-02-04T15:23:18;14.40;89.00
47805;DHT22;33568;45.286;9.900;2024-02-04T15:25:44;14.40;90.00
47805;DHT22;33568;45.286;9.900;2024-02-04T15:28:11;14.30;89.90
47805;DHT22;33568;45.286;9.900;2024-02-04T15:30:41;14.20;90.10
47805;DHT22;33568;45.286;9.900;2024-02-04T15:33:08;14.10;90.30
47805;DHT22;33568;45.286;9.900;2024-02-04T15:35:34;14.10;90.50
47805;DHT22;33568;45.286;9.900;2024-02-04T15:38:01;14.00;90.80
47805;DHT22;33568;45.286;9.900;2024-02-04T15:40:29;13.90;90.90
47805;DHT22;33568;45.286;9.900;2024-02-04T15:42:55;13.90;91.10
47805;DHT22;33568;45.286;9.900;2024-02-04T15:45:22;13.80;91.30
47805;DHT22;33568;45.286;9.900;2024-02-04T15:47:51;13.70;92.00
47805;DHT22;33568;45.286;9.900;2024-02-04T15:50:20;13.60;91.60
47805;DHT22;33568;45.286;9.900;2024-02-04T15:52:47;13.60;91.70